Time;durP1;ratioP1;P1;durP2;ratioP2;P2;SDS_P1;SDS_P2;PMS_P1;PMS_P2;Temp;Humidity;BMP_temperature;BMP_pressure;BME280_temperature;BME280_humidity;BME280_pressure;Samples;Min_cycle;Max_cycle;Signal;HPM_P1;HPM_P2
2023/04/22 00:00:53;;;;;;;8.93;8.63;;;;;;;7.82;92.40;100370.31;5117184;28;20192;-67
2023/04/22 00:03:21;;;;;;;9.80;9.30;;;;;;;7.70;92.62;100369.31;5117117;28;20275;-67
2023/04/22 00:05:48;;;;;;;10.33;9.77;;;;;;;7.61;92.40;100372.56;5117313;28;20560;-67
2023/04/22 00:08:15;;;;;;;9.80;9.40;;;;;;;7.64;92.76;100370.56;5117326;28;20189;-67
2023/04/22 00:10:41;;;;;;;11.10;10.57;;;;;;;7.61;92.55;100372.56;5117328;28;20181;-68
2023/04/22 00:13:07;;;;;;;12.93;11.93;;;;;;;7.60;93.32;100361.06;5117237;28;20227;-67
2023/04/22 00:15:34;;;;;;;13.83;12.63;;;;;;;7.63;94.00;100368.84;5116810;28;20635;-68
2023/04/22 00:18:00;;;;;;;13.00;11.97;;;;;;;7.58;93.59;100365.63;5116884;28;20272;-68
2023/04/22 00:20:28;;;;;;;14.67;13.47;;;;;;;7.61;94.06;100360.13;5117051;28;20264;-67
2023/04/22 00:22:54;;;;;;;14.57;13.47;;;;;;;7.70;95.17;100360.47;5117096;28;20511;-67
2023/04/22 00:25:21;;;;;;;16.57;14.87;;;;;;;7.72;94.95;100359.41;5117066;28;20242;-67
2023/04/22 00:27:47;;;;;;;15.83;14.27;;;;;;;7.73;95.68;100354.94;5116519;28;20207;-67
2023/04/22 00:30:14;;;;;;;15.80;14.33;;;;;;;7.74;95.52;100356.66;5116669;28;20198;-67
2023/04/22 00:32:40;;;;;;;15.93;14.47;;;;;;;7.78;95.52;100360.81;5116551;28;20191;-67
2023/04/22 00:35:07;;;;;;;16.27;14.73;;;;;;;7.79;95.36;100351.88;5116348;28;20304;-67
2023/04/22 00:37:34;;;;;;;15.50;14.10;;;;;;;7.79;95.25;100349.19;5116268;28;20193;-67
2023/04/22 00:40:01;;;;;;;15.77;14.43;;;;;;;7.79;95.51;100342.06;5098645;28;20238;-67
2023/04/22 00:42:28;;;;;;;13.77;12.77;;;;;;;7.76;95.28;100347.59;5116946;28;20195;-67
2023/04/22 00:44:55;;;;;;;15.03;13.67;;;;;;;7.77;94.92;100348.44;5116558;28;20236;-67
2023/04/22 00:47:25;;;;;;;14.50;12.97;;;;;;;7.72;95.02;100345.22;5116331;28;20265;-67
2023/04/22 00:49:52;;;;;;;13.73;12.60;;;;;;;7.66;95.00;100347.34;5116599;28;20233;-67
2023/04/22 00:52:18;;;;;;;13.43;12.27;;;;;;;7.58;95.10;100346.97;5097976;28;20192;-67
2023/04/22 00:54:45;;;;;;;14.57;13.33;;;;;;;7.57;94.82;100339.97;5116298;28;20225;-67
2023/04/22 00:57:12;;;;;;;14.40;12.97;;;;;;;7.54;95.45;100342.84;5097892;28;20193;-67
2023/04/22 00:59:38;;;;;;;14.07;12.67;;;;;;;7.52;95.16;100341.19;5097841;28;20201;-67
2023/04/22 01:02:05;;;;;;;13.60;12.57;;;;;;;7.53;95.66;100342.91;5116563;28;20212;-67
2023/04/22 01:04:33;;;;;;;15.67;14.07;;;;;;;7.56;95.37;100338.22;5115834;28;20605;-67
2023/04/22 01:07:00;;;;;;;16.17;14.43;;;;;;;7.57;95.59;100339.97;5115877;28;20678;-67
2023/04/22 01:09:27;;;;;;;17.33;15.53;;;;;;;7.57;95.45;100339.97;5115856;28;20189;-67
2023/04/22 01:11:55;;;;;;;16.87;15.23;;;;;;;7.54;96.23;100331.28;5116362;28;20263;-67
2023/04/22 01:14:22;;;;;;;16.80;15.27;;;;;;;7.57;96.23;100339.09;5116236;28;20185;-67
2023/04/22 01:16:50;;;;;;;18.20;16.33;;;;;;;7.59;96.00;100340.72;5116198;28;20619;-67
2023/04/22 01:19:19;;;;;;;19.77;15.73;;;;;;;7.62;95.94;100342.31;5115989;28;20197;-67
2023/04/22 01:21:47;;;;;;;18.87;16.70;;;;;;;7.65;96.29;100342.09;5116162;28;20662;-67
2023/04/22 01:24:13;;;;;;;18.00;16.10;;;;;;;7.69;96.59;100340.13;5116092;28;20545;-67
2023/04/22 01:26:40;;;;;;;20.03;16.83;;;;;;;7.71;96.52;100344.38;5115322;28;20230;-67
2023/04/22 01:29:06;;;;;;;20.70;15.43;;;;;;;7.72;96.34;100335.41;5115530;28;20170;-67
2023/04/22 01:31:33;;;;;;;18.33;16.30;;;;;;;7.74;96.22;100333.50;5097386;28;20657;-67
2023/04/22 01:34:00;;;;;;;20.20;17.37;;;;;;;7.82;96.05;100336.50;5115695;28;20185;-67
2023/04/22 01:36:27;;;;;;;18.80;16.43;;;;;;;7.83;96.56;100343.56;5096951;28;20221;-67
2023/04/22 01:38:53;;;;;;;20.47;16.17;;;;;;;7.84;96.17;100344.41;5115286;28;20184;-67
2023/04/22 01:41:20;;;;;;;17.13;15.07;;;;;;;7.85;96.19;100351.44;5115466;28;20196;-67
2023/04/22 01:43:46;;;;;;;17.80;15.87;;;;;;;7.85;96.34;100348.78;5115738;28;20184;-67
2023/04/22 01:46:15;;;;;;;16.73;15.00;;;;;;;7.83;96.45;100354.22;5115093;28;20215;-67
2023/04/22 01:48:49;;;;;;;16.83;14.93;;;;;;;7.83;96.38;100346.22;5096918;28;20231;-67
2023/04/22 01:51:16;;;;;;;22.27;15.00;;;;;;;7.83;96.23;100346.22;5114878;28;20261;-67
2023/04/22 01:53:43;;;;;;;14.63;13.13;;;;;;;7.83;96.03;100350.72;5096773;28;20195;-67
2023/04/22 01:56:09;;;;;;;17.57;15.33;;;;;;;7.79;95.87;100346.53;5115094;28;20231;-67
2023/04/22 01:58:38;;;;;;;14.50;13.10;;;;;;;7.82;96.52;100343.66;5096636;28;20292;-67
2023/04/22 02:01:05;;;;;;;16.83;15.20;;;;;;;7.83;96.26;100345.38;5096873;28;20281;-67
2023/04/22 02:03:31;;;;;;;15.13;13.83;;;;;;;7.81;96.57;100345.47;5115080;28;20185;-67
2023/04/22 02:05:58;;;;;;;16.00;14.73;;;;;;;7.80;96.54;100338.41;5096624;28;20236;-67
2023/04/22 02:08:25;;;;;;;16.83;15.03;;;;;;;7.81;95.94;100340.16;5096478;28;20196;-67
2023/04/22 02:10:51;;;;;;;15.40;13.87;;;;;;;7.80;96.31;100338.41;5096441;28;20656;-67
2023/04/22 02:13:17;;;;;;;19.97;15.90;;;;;;;7.81;96.54;100339.28;5114609;28;20267;-67
2023/04/22 02:15:44;;;;;;;19.90;14.80;;;;;;;7.82;96.15;100351.66;5096282;28;20216;-67
2023/04/22 02:18:10;;;;;;;17.73;15.77;;;;;;;7.81;96.44;100337.47;5114545;28;20716;-67
2023/04/22 02:20:37;;;;;;;17.13;15.33;;;;;;;7.82;96.18;100341.84;5114722;28;20557;-67
2023/04/22 02:23:04;;;;;;;16.73;15.07;;;;;;;7.80;96.41;100342.91;5114712;28;20216;-67
2023/04/22 02:25:31;;;;;;;15.27;13.77;;;;;;;7.77;96.07;100333.28;5114287;28;20205;-67
2023/04/22 02:27:57;;;;;;;15.27;13.90;;;;;;;7.75;96.53;100335.22;5114172;28;20585;-67
2023/04/22 02:30:24;;;;;;;17.93;15.10;;;;;;;7.74;96.25;100333.50;5096028;28;20777;-67
2023/04/22 02:32:51;;;;;;;17.23;15.47;;;;;;;7.74;96.38;100333.50;5114548;28;20195;-67
2023/04/22 02:35:18;;;;;;;17.07;15.07;;;;;;;7.77;96.29;100338.63;5114309;28;20283;-67
2023/04/22 02:37:44;;;;;;;16.83;15.40;;;;;;;7.75;96.16;100329.88;5114458;28;20194;-67
2023/04/22 02:40:11;;;;;;;16.83;15.07;;;;;;;7.76;96.47;100333.41;5114399;28;20194;-67
2023/04/22 02:42:37;;;;;;;17.27;15.40;;;;;;;7.79;96.42;100325.22;5095837;28;20193;-67
2023/04/22 02:45:05;;;;;;;21.83;16.70;;;;;;;7.77;96.15;100327.97;5095963;28;20216;-67
2023/04/22 02:47:31;;;;;;;18.97;17.00;;;;;;;7.80;96.00;100326.91;5095751;28;20673;-67
2023/04/22 02:49:57;;;;;;;17.97;15.70;;;;;;;7.80;96.48;100317.09;5095604;28;20200;-67
2023/04/22 02:52:24;;;;;;;23.90;17.57;;;;;;;7.82;96.25;100314.34;5095743;28;20192;-67
2023/04/22 02:54:51;;;;;;;20.27;18.03;;;;;;;7.84;96.04;100317.75;5095652;28;20312;-67
2023/04/22 02:57:17;;;;;;;18.40;16.70;;;;;;;7.86;96.10;100311.34;5095576;28;20219;-67
2023/04/22 02:59:43;;;;;;;18.40;16.63;;;;;;;7.84;95.99;100312.44;5113880;28;20185;-67
2023/04/22 03:02:11;;;;;;;17.27;15.67;;;;;;;7.86;96.12;100306.03;5094955;28;20202;-67
2023/04/22 03:04:56;;;;;;;15.53;14.13;;;;;;;7.86;96.11;100299.84;5114142;28;20211;-67
2023/04/22 03:07:22;;;;;;;16.57;14.87;;;;;;;7.84;96.23;100302.59;5114355;28;20176;-67
2023/04/22 03:09:49;;;;;;;18.30;16.40;;;;;;;7.86;96.31;100302.50;5113776;28;20236;-67
2023/04/22 03:12:15;;;;;;;19.07;17.07;;;;;;;7.87;96.04;100293.53;5095559;28;20197;-67
2023/04/22 03:14:42;;;;;;;19.50;17.50;;;;;;;7.87;96.40;100299.72;5114165;28;20697;-67
2023/04/22 03:17:08;;;;;;;18.50;16.77;;;;;;;7.89;96.06;100289.81;5095348;28;20246;-67
2023/04/22 03:19:35;;;;;;;18.37;16.63;;;;;;;7.91;96.55;100291.53;5095668;28;20603;-67
2023/04/22 03:22:02;;;;;;;20.47;18.00;;;;;;;7.89;96.20;100294.28;5113677;28;20192;-67
2023/04/22 03:24:28;;;;;;;19.57;17.67;;;;;;;7.91;96.07;100299.53;5113834;28;20181;-67
2023/04/22 03:26:54;;;;;;;19.67;17.57;;;;;;;7.90;96.11;100296.00;5095915;28;20193;-67
2023/04/22 03:29:21;;;;;;;23.87;17.90;;;;;;;7.93;96.22;100282.47;5113543;28;20199;-67
2023/04/22 03:31:47;;;;;;;17.80;15.90;;;;;;;7.96;96.44;100286.75;5095280;28;20295;-67
2023/04/22 03:34:14;;;;;;;18.93;17.03;;;;;;;7.94;96.45;100280.66;5095276;28;20239;-67
2023/04/22 03:36:41;;;;;;;18.33;16.57;;;;;;;7.96;96.76;100278.75;5095169;28;20240;-67
2023/04/22 03:39:08;;;;;;;18.23;15.80;;;;;;;7.98;96.50;100277.69;5095304;28;20191;-67
2023/04/22 03:41:34;;;;;;;17.93;15.87;;;;;;;8.01;96.43;100284.63;5095205;28;20231;-67
2023/04/22 03:44:01;;;;;;;18.73;16.70;;;;;;;8.03;96.96;100278.22;5095256;28;20193;-67
2023/04/22 03:46:28;;;;;;;23.30;18.10;;;;;;;8.10;96.64;100276.84;5095043;28;20284;-67
2023/04/22 03:49:04;;;;;;;17.33;15.57;;;;;;;8.18;96.92;100270.97;5095435;28;20177;-67
2023/04/22 03:51:33;;;;;;;17.03;15.27;;;;;;;8.19;97.40;100272.69;5095734;28;20189;-67
2023/04/22 03:54:04;;;;;;;16.43;14.70;;;;;;;8.19;97.14;100272.69;5095421;28;20200;-67
2023/04/22 03:56:34;;;;;;;17.13;15.00;;;;;;;8.26;97.67;100265.97;5094961;28;20220;-67
2023/04/22 03:59:00;;;;;;;16.97;14.53;;;;;;;8.29;97.27;100272.91;5095057;28;20224;-67
2023/04/22 04:01:26;;;;;;;16.30;14.70;;;;;;;8.31;97.32;100273.66;5095087;28;20197;-67
2023/04/22 04:03:57;;;;;;;20.07;14.07;;;;;;;8.27;97.53;100266.81;5095877;28;20197;-67
2023/04/22 04:06:32;;;;;;;16.70;15.10;;;;;;;8.29;97.27;100263.06;5095198;28;20690;-67
2023/04/22 04:09:00;;;;;;;17.97;15.30;;;;;;;8.30;97.40;100263.94;5094965;28;20196;-67
2023/04/22 04:11:27;;;;;;;17.57;15.03;;;;;;;8.34;97.42;100268.09;5095451;28;20243;-67
2023/04/22 04:13:55;;;;;;;18.47;16.50;;;;;;;8.33;97.34;100263.69;5097800;28;20223;-67
2023/04/22 04:16:26;;;;;;;17.60;15.80;;;;;;;8.32;97.15;100251.34;5098806;28;20223;-67
2023/04/22 04:18:59;;;;;;;22.30;16.33;;;;;;;8.31;97.18;100258.50;5098891;28;20263;-67
2023/04/22 04:21:26;;;;;;;18.13;16.37;;;;;;;8.36;96.92;100258.16;5098852;28;20726;-67
2023/04/22 04:23:54;;;;;;;15.90;14.60;;;;;;;8.38;97.29;100255.38;5098467;28;20192;-67
2023/04/22 04:26:26;;;;;;;17.27;15.40;;;;;;;8.37;96.92;100245.69;5098370;28;20209;-67
2023/04/22 04:29:02;;;;;;;15.87;14.27;;;;;;;8.36;97.05;100244.84;5099263;28;20177;-67
2023/04/22 04:31:29;;;;;;;16.57;14.90;;;;;;;8.36;96.93;100244.84;5098419;28;20230;-67
2023/04/22 04:33:57;;;;;;;15.53;13.80;;;;;;;8.40;97.01;100237.47;5098962;28;20235;-67
2023/04/22 04:36:28;;;;;;;15.03;13.63;;;;;;;8.42;97.09;100232.91;5098409;28;20216;-67
2023/04/22 04:39:05;;;;;;;15.97;14.33;;;;;;;8.45;96.89;100236.22;5098824;28;20180;-67
2023/04/22 04:41:32;;;;;;;15.97;14.27;;;;;;;8.41;97.00;100232.03;5098712;28;20177;-67
2023/04/22 04:44:02;;;;;;;16.53;14.23;;;;;;;8.44;96.87;100229.16;5098486;28;20280;-67
2023/04/22 04:46:33;;;;;;;17.27;14.33;;;;;;;8.48;97.07;100235.97;5098530;28;20217;-67
2023/04/22 04:49:01;;;;;;;14.93;13.70;;;;;;;8.48;97.24;100241.31;5098012;28;20627;-67
2023/04/22 04:51:33;;;;;;;15.40;14.07;;;;;;;8.45;96.84;100244.22;5098820;28;20173;-67
2023/04/22 04:54:00;;;;;;;18.80;13.53;;;;;;;8.51;96.86;100238.44;5098567;28;20184;-67
2023/04/22 04:56:32;;;;;;;16.50;14.80;;;;;;;8.56;97.05;100235.44;5098005;28;20209;-67
2023/04/22 04:58:59;;;;;;;14.57;13.27;;;;;;;8.57;96.68;100229.16;5098114;28;20231;-67
2023/04/22 05:01:26;;;;;;;15.50;14.03;;;;;;;8.60;96.48;100223.59;5098637;28;20189;-67
2023/04/22 05:03:56;;;;;;;15.37;13.87;;;;;;;8.55;96.72;100225.72;5097761;28;20189;-67
2023/04/22 05:06:23;;;;;;;15.47;13.93;;;;;;;8.56;97.06;100230.09;5115915;28;20254;-68
2023/04/22 05:08:55;;;;;;;15.33;13.80;;;;;;;8.63;96.94;100227.84;5098841;28;20174;-68
2023/04/22 05:11:22;;;;;;;15.30;14.00;;;;;;;8.64;97.01;100233.09;5097661;28;20626;-68
2023/04/22 05:13:50;;;;;;;16.43;14.83;;;;;;;8.65;96.65;100224.09;5097546;28;20185;-68
2023/04/22 05:16:22;;;;;;;13.87;12.60;;;;;;;8.64;96.60;100226.88;5097550;28;20209;-68
2023/04/22 05:18:49;;;;;;;19.63;15.40;;;;;;;8.65;96.59;100229.44;5097518;28;20212;-68
2023/04/22 05:21:16;;;;;;;15.70;13.67;;;;;;;8.68;96.40;100223.88;5097441;28;20282;-68
2023/04/22 05:23:43;;;;;;;15.23;13.93;;;;;;;8.69;96.53;100216.72;5096985;28;20243;-68
2023/04/22 05:26:10;;;;;;;14.03;12.73;;;;;;;8.76;96.10;100222.47;5097052;28;20208;-68
2023/04/22 05:28:39;;;;;;;15.97;14.37;;;;;;;8.78;96.29;100224.06;5097170;28;20197;-68
2023/04/22 05:31:06;;;;;;;15.90;12.97;;;;;;;8.89;95.79;100220.63;5097238;28;20192;-67
2023/04/22 05:33:32;;;;;;;14.87;13.50;;;;;;;8.90;95.61;100223.16;5097197;28;20289;-67
2023/04/22 05:35:59;;;;;;;15.10;13.67;;;;;;;9.02;95.85;100220.56;5096988;28;20597;-68
2023/04/22 05:38:25;;;;;;;15.57;14.17;;;;;;;8.99;95.29;100220.81;5097125;28;20598;-67
2023/04/22 05:40:54;;;;;;;15.67;14.27;;;;;;;9.01;94.97;100221.53;5097540;28;20189;-67
2023/04/22 05:43:20;;;;;;;16.27;14.73;;;;;;;9.10;94.93;100218.19;5115214;28;20219;-67
2023/04/22 05:45:56;;;;;;;13.70;12.53;;;;;;;9.13;94.97;100217.97;5097131;28;20678;-68
2023/04/22 05:48:22;;;;;;;14.80;13.40;;;;;;;9.14;94.89;100214.31;5115142;28;20242;-68
2023/04/22 05:50:58;;;;;;;13.93;12.70;;;;;;;9.22;94.89;100222.63;5097668;28;20180;-68
2023/04/22 05:53:27;;;;;;;14.53;13.00;;;;;;;9.27;94.59;100220.47;5096838;28;20200;-68
2023/04/22 05:55:54;;;;;;;14.17;13.10;;;;;;;9.29;94.71;100220.31;5097154;28;20305;-68
2023/04/22 05:58:22;;;;;;;12.90;11.77;;;;;;;9.28;94.53;100221.31;5096858;28;20735;-68
2023/04/22 06:00:51;;;;;;;14.33;13.03;;;;;;;9.31;94.37;100229.97;5097139;28;20704;-68
2023/04/22 06:03:40;;;;;;;13.17;12.23;;;;;;;9.41;94.39;100223.91;5115061;28;20296;-68
2023/04/22 06:06:07;;;;;;;14.47;13.30;;;;;;;9.42;94.35;100223.81;5096523;28;20237;-68
2023/04/22 06:08:34;;;;;;;12.87;11.83;;;;;;;9.47;94.36;100226.13;5096718;28;20651;-68
2023/04/22 06:11:00;;;;;;;12.00;11.20;;;;;;;9.51;94.19;100220.44;5114668;28;20702;-68
2023/04/22 06:13:30;;;;;;;13.07;12.07;;;;;;;9.51;94.07;100219.59;5096564;28;20189;-69
2023/04/22 06:15:56;;;;;;;15.47;13.97;;;;;;;9.56;94.54;100230.78;5096294;28;20227;-69
2023/04/22 06:18:23;;;;;;;15.10;13.93;;;;;;;9.63;94.27;100228.50;5096258;28;20266;-69
2023/04/22 06:20:53;;;;;;;14.67;13.00;;;;;;;9.69;94.27;100222.69;5096221;28;20252;-69
2023/04/22 06:23:20;;;;;;;14.53;12.77;;;;;;;9.78;94.16;100232.66;5097360;28;20221;-68
2023/04/22 06:25:47;;;;;;;14.83;13.37;;;;;;;9.83;94.13;100227.81;5096002;28;20240;-68
2023/04/22 06:28:14;;;;;;;15.60;14.23;;;;;;;9.85;93.84;100225.03;5095820;28;20203;-68
2023/04/22 06:30:42;;;;;;;15.13;13.77;;;;;;;9.97;94.01;100226.75;5096032;28;20217;-68
2023/04/22 06:33:09;;;;;;;14.43;12.93;;;;;;;9.97;93.65;100226.75;5096201;28;20221;-68
2023/04/22 06:35:35;;;;;;;14.67;13.27;;;;;;;10.02;93.22;100222.75;5095666;28;20239;-69
2023/04/22 06:38:01;;;;;;;14.47;12.83;;;;;;;10.12;93.63;100219.34;5114020;28;20299;-69
2023/04/22 06:40:34;;;;;;;15.20;13.60;;;;;;;10.22;93.58;100215.84;5096184;28;20189;-68
2023/04/22 06:43:13;;;;;;;13.13;12.07;;;;;;;10.28;92.91;100211.00;5096183;28;20540;-68
2023/04/22 06:46:06;;;;;;;15.67;14.13;;;;;;;10.39;92.67;100211.88;5110840;28;20267;-68
2023/04/22 06:48:38;;;;;;;14.40;13.20;;;;;;;10.50;92.95;100212.84;5114365;28;20169;-68
2023/04/22 06:51:23;;;;;;;15.23;12.77;;;;;;;10.58;92.73;100215.75;5114599;28;20181;-68
2023/04/22 06:53:49;;;;;;;13.90;12.87;;;;;;;10.77;92.72;100213.28;5095762;28;20189;-68
2023/04/22 06:56:16;;;;;;;13.90;12.60;;;;;;;10.91;92.23;100216.69;5113834;28;20699;-69
2023/04/22 06:58:42;;;;;;;13.17;12.17;;;;;;;10.99;92.24;100212.41;5113910;28;20651;-69
2023/04/22 07:01:09;;;;;;;13.97;12.63;;;;;;;11.08;92.74;100216.13;5113890;28;20181;-69
2023/04/22 07:03:38;;;;;;;15.33;13.77;;;;;;;11.09;91.66;100215.19;5095547;28;20200;-69
2023/04/22 07:06:08;;;;;;;13.90;12.60;;;;;;;11.28;92.17;100210.00;5095522;28;20209;-69
2023/04/22 07:08:35;;;;;;;13.87;12.27;;;;;;;11.57;91.25;100208.53;5095526;28;20196;-69
2023/04/22 07:11:01;;;;;;;13.83;12.60;;;;;;;11.89;91.91;100212.03;5095550;28;20212;-69
2023/04/22 07:13:37;;;;;;;14.57;12.33;;;;;;;12.08;88.96;100211.28;5095807;28;20203;-69
2023/04/22 07:16:04;;;;;;;12.97;11.93;;;;;;;12.31;86.30;100201.25;5113609;28;20209;-69
2023/04/22 07:18:31;;;;;;;11.73;10.87;;;;;;;12.63;85.20;100207.44;5114139;28;20254;-69
2023/04/22 07:20:57;;;;;;;12.93;11.63;;;;;;;12.91;85.29;100208.53;5113908;28;20185;-69
2023/04/22 07:23:24;;;;;;;11.10;10.40;;;;;;;13.12;84.31;100201.19;5113572;28;20191;-69
2023/04/22 07:25:50;;;;;;;11.27;10.47;;;;;;;13.35;84.30;100209.03;5113818;28;20209;-69
2023/04/22 07:28:16;;;;;;;11.20;10.30;;;;;;;13.51;82.11;100205.78;5113524;28;20533;-69
2023/04/22 07:30:43;;;;;;;11.33;10.53;;;;;;;13.70;81.05;100208.44;5113582;28;20185;-69
2023/04/22 07:33:09;;;;;;;10.27;9.63;;;;;;;13.89;80.52;100207.56;5113518;28;20185;-69
2023/04/22 07:35:36;;;;;;;10.93;10.03;;;;;;;14.01;80.10;100205.56;5113534;28;20205;-69
2023/04/22 07:38:02;;;;;;;11.13;9.93;;;;;;;14.13;80.59;100209.78;5113323;28;20209;-69
2023/04/22 07:40:28;;;;;;;9.73;8.90;;;;;;;14.31;80.92;100196.38;5113436;28;20197;-69
2023/04/22 07:42:55;;;;;;;8.67;8.20;;;;;;;14.38;77.07;100197.50;5113407;28;20217;-69
2023/04/22 07:45:21;;;;;;;7.73;7.53;;;;;;;14.53;75.77;100199.69;5113319;28;20212;-69
2023/04/22 07:47:48;;;;;;;10.43;7.07;;;;;;;14.67;74.86;100194.69;5114599;28;20191;-69
2023/04/22 07:50:15;;;;;;;8.23;7.93;;;;;;;14.88;74.07;100190.91;5117854;28;20656;-69
2023/04/22 07:52:41;;;;;;;6.77;6.47;;;;;;;15.01;73.36;100191.41;5117383;28;20185;-69
2023/04/22 07:55:08;;;;;;;6.83;6.43;;;;;;;15.20;73.38;100189.53;5117412;28;20238;-69
2023/04/22 07:57:37;;;;;;;16.47;14.63;;;;;;;15.31;71.08;100192.84;5117250;28;20197;-69
2023/04/22 08:00:08;;;;;;;6.70;6.17;;;;;;;15.46;69.54;100197.72;5117421;28;20200;-69
2023/04/22 08:02:38;;;;;;;6.07;5.63;;;;;;;15.47;68.91;100199.44;5117226;28;20181;-69
2023/04/22 08:05:05;;;;;;;4.37;4.17;;;;;;;15.47;67.43;100194.03;5117441;28;20543;-69
2023/04/22 08:07:31;;;;;;;4.77;4.63;;;;;;;15.43;67.86;100193.47;5117055;28;20185;-69
2023/04/22 08:09:59;;;;;;;4.23;4.13;;;;;;;15.47;67.90;100186.78;5117302;28;20188;-69
2023/04/22 08:12:26;;;;;;;3.77;3.77;;;;;;;15.66;66.73;100188.47;5117538;28;20667;-69
2023/04/22 08:14:52;;;;;;;8.93;3.40;;;;;;;15.82;66.04;100178.81;5116935;28;20577;-69
2023/04/22 08:17:20;;;;;;;3.33;3.33;;;;;;;16.03;61.38;100173.03;5116888;28;20240;-69
2023/04/22 08:19:48;;;;;;;4.67;4.37;;;;;;;16.27;64.12;100166.94;5116860;28;20188;-69
2023/04/22 08:22:16;;;;;;;3.30;3.30;;;;;;;16.41;59.00;100162.78;5116800;28;20208;-69
2023/04/22 08:24:43;;;;;;;3.37;3.27;;;;;;;16.54;59.64;100164.03;5116721;28;20287;-69
2023/04/22 08:27:09;;;;;;;3.37;3.27;;;;;;;16.65;60.40;100164.75;5116660;28;20582;-69
2023/04/22 08:29:36;;;;;;;3.30;3.30;;;;;;;16.76;58.66;100168.00;5116711;28;20189;-69
2023/04/22 08:32:03;;;;;;;3.43;3.27;;;;;;;16.93;59.93;100177.03;5116541;28;20192;-68
2023/04/22 08:34:30;;;;;;;4.17;3.63;;;;;;;17.00;58.45;100163.69;5116430;28;20547;-69
2023/04/22 08:36:56;;;;;;;3.43;3.33;;;;;;;17.05;57.26;100163.16;5116701;28;20532;-69
2023/04/22 08:39:23;;;;;;;3.03;3.03;;;;;;;17.07;56.83;100158.44;5116473;28;20186;-69
2023/04/22 08:41:50;;;;;;;3.30;3.30;;;;;;;17.11;56.78;100163.34;5116646;28;20571;-69
2023/04/22 08:44:17;;;;;;;3.20;2.90;;;;;;;17.22;56.34;100160.34;5116358;28;20191;-69
2023/04/22 08:46:47;;;;;;;2.70;2.70;;;;;;;17.32;55.20;100154.75;5116303;28;20181;-69
2023/04/22 08:49:14;;;;;;;6.67;3.40;;;;;;;17.28;55.65;100157.97;5116878;28;20169;-69
2023/04/22 08:51:42;;;;;;;3.70;3.40;;;;;;;17.30;54.85;100162.19;5116489;28;20181;-68
2023/04/22 08:54:09;;;;;;;2.67;2.67;;;;;;;17.47;57.05;100154.94;5116722;28;20181;-68
2023/04/22 08:56:42;;;;;;;5.70;3.60;;;;;;;17.75;57.51;100147.31;5116067;28;20300;-69
2023/04/22 08:59:10;;;;;;;9.20;2.97;;;;;;;18.01;57.66;100140.88;5116251;28;20204;-69
2023/04/22 09:01:40;;;;;;;2.73;2.67;;;;;;;18.21;53.75;100139.44;5116877;28;20188;-69
2023/04/22 09:04:09;;;;;;;2.67;2.67;;;;;;;18.32;52.49;100143.66;5116602;28;20177;-68
2023/04/22 09:06:37;;;;;;;2.50;2.50;;;;;;;18.35;52.83;100142.44;5115924;28;20703;-69
2023/04/22 09:09:04;;;;;;;3.40;3.37;;;;;;;18.35;53.52;100151.44;5115891;28;20177;-69
2023/04/22 09:11:31;;;;;;;2.53;2.47;;;;;;;18.43;54.84;100139.69;5115736;28;20185;-69
2023/04/22 09:13:57;;;;;;;2.60;2.60;;;;;;;18.44;50.62;100141.41;5116097;28;20185;-68
2023/04/22 09:16:24;;;;;;;4.00;3.30;;;;;;;18.47;51.60;100135.63;5115700;28;20214;-69
2023/04/22 09:18:50;;;;;;;3.03;3.03;;;;;;;18.56;50.69;100121.00;5115912;28;20213;-69
2023/04/22 09:21:16;;;;;;;2.30;2.30;;;;;;;18.66;51.13;100126.22;5115665;28;20588;-69
2023/04/22 09:23:49;;;;;;;2.90;2.80;;;;;;;18.80;49.77;100130.06;5115634;28;20186;-68
2023/04/22 09:26:22;;;;;;;2.73;2.63;;;;;;;18.94;49.89;100131.16;5115542;28;20291;-68
2023/04/22 09:28:57;;;;;;;2.70;2.50;;;;;;;19.01;49.71;100124.84;5115900;28;20166;-68
2023/04/22 09:31:24;;;;;;;11.90;2.50;;;;;;;19.01;48.71;100127.56;5115765;28;20181;-68
2023/04/22 09:33:56;;;;;;;7.00;2.70;;;;;;;19.19;49.45;100126.41;5115422;28;20189;-69
2023/04/22 09:36:26;;;;;;;3.00;2.90;;;;;;;19.35;50.48;100120.84;5115525;28;20211;-69
2023/04/22 09:38:58;;;;;;;2.80;2.80;;;;;;;19.62;51.45;100118.59;5115476;28;20201;-68
2023/04/22 09:41:29;;;;;;;2.90;2.90;;;;;;;19.52;46.46;100124.28;5115301;28;20185;-68
2023/04/22 09:44:00;;;;;;;6.33;2.90;;;;;;;19.50;48.52;100127.16;5115785;28;20184;-69
2023/04/22 09:46:28;;;;;;;2.40;2.40;;;;;;;19.31;47.71;100130.38;5115125;28;20201;-68
2023/04/22 09:48:56;;;;;;;2.50;2.50;;;;;;;19.43;48.12;100119.94;5096834;28;20189;-69
2023/04/22 09:51:23;;;;;;;2.73;2.50;;;;;;;19.62;49.80;100115.88;5115646;28;20207;-69
2023/04/22 09:54:07;;;;;;;2.30;2.30;;;;;;;19.81;47.73;100118.06;5115574;28;20647;-69
2023/04/22 09:56:48;;;;;;;2.90;2.90;;;;;;;19.98;46.74;100116.88;5114944;28;20205;-69
2023/04/22 09:59:26;;;;;;;2.90;2.90;;;;;;;20.01;46.67;100117.53;5115144;28;20227;-69
2023/04/22 10:02:03;;;;;;;3.10;3.10;;;;;;;19.96;44.99;100109.94;5114917;28;20689;-68
2023/04/22 10:04:30;;;;;;;5.27;4.30;;;;;;;20.09;46.28;100114.75;5114821;28;20184;-68
2023/04/22 10:06:56;;;;;;;3.77;3.47;;;;;;;20.21;46.73;100107.78;5114796;28;20216;-68
2023/04/22 10:09:24;;;;;;;2.53;2.53;;;;;;;20.47;48.07;100101.00;5114760;28;20554;-69
2023/04/22 10:11:52;;;;;;;3.67;2.93;;;;;;;20.72;47.85;100104.28;5115217;28;20482;-69
2023/04/22 10:14:23;;;;;;;2.50;2.50;;;;;;;20.57;44.50;100099.69;5114492;28;20224;-69
2023/04/22 10:16:55;;;;;;;2.70;2.70;;;;;;;20.46;46.45;100105.59;5114577;28;20185;-68
2023/04/22 10:19:24;;;;;;;4.10;2.60;;;;;;;20.45;44.62;100098.47;5114463;28;20284;-69
2023/04/22 10:21:55;;;;;;;2.90;2.70;;;;;;;20.58;46.81;100095.09;5114694;28;20203;-69
2023/04/22 10:24:25;;;;;;;2.73;2.73;;;;;;;20.72;46.58;100090.66;5114946;28;20184;-70
2023/04/22 10:27:01;;;;;;;2.80;2.70;;;;;;;20.86;46.46;100094.38;5114530;28;20223;-68
2023/04/22 10:29:35;;;;;;;2.93;2.93;;;;;;;20.84;46.11;100091.00;5114311;28;20162;-69
2023/04/22 10:32:17;;;;;;;2.60;2.50;;;;;;;20.62;45.78;100084.69;5114662;28;20169;-68
2023/04/22 10:34:45;;;;;;;2.37;2.37;;;;;;;20.27;44.92;100085.25;5114698;28;20287;-68
2023/04/22 10:37:13;;;;;;;2.33;2.33;;;;;;;20.27;45.97;100084.44;5114168;28;20200;-68
2023/04/22 10:39:41;;;;;;;2.77;2.77;;;;;;;20.45;45.62;100082.16;5114436;28;20197;-68
2023/04/22 10:42:10;;;;;;;3.30;3.20;;;;;;;20.83;50.40;100082.00;5114666;28;20185;-68
2023/04/22 10:44:48;;;;;;;3.23;3.23;;;;;;;21.07;44.95;100091.66;5114223;28;20557;-67
2023/04/22 10:47:25;;;;;;;2.80;2.80;;;;;;;21.17;43.99;100084.00;5114348;28;20179;-68
2023/04/22 10:50:26;;;;;;;2.97;2.87;;;;;;;21.22;42.48;100091.59;5114370;28;20210;-68
2023/04/22 10:53:20;;;;;;;3.33;3.23;;;;;;;21.27;42.76;100072.78;5114305;28;20181;-68
2023/04/22 10:55:51;;;;;;;2.60;2.60;;;;;;;21.41;44.33;100074.59;5114310;28;20204;-68
2023/04/22 10:58:20;;;;;;;3.57;3.27;;;;;;;21.50;43.10;100080.75;5113797;28;20292;-68
2023/04/22 11:00:52;;;;;;;2.33;2.33;;;;;;;21.84;45.74;100081.84;5095824;28;20716;-68
2023/04/22 11:03:26;;;;;;;2.20;2.20;;;;;;;21.87;43.07;100086.88;5096670;28;20203;-68
2023/04/22 11:06:12;;;;;;;3.70;2.90;;;;;;;21.64;42.57;100077.09;5114033;28;20215;-68
2023/04/22 11:08:43;;;;;;;4.73;2.80;;;;;;;21.67;43.59;100073.97;5114074;28;20196;-68
2023/04/22 11:11:10;;;;;;;3.10;3.00;;;;;;;21.90;42.90;100066.56;5114079;28;20174;-68
2023/04/22 11:13:36;;;;;;;2.63;2.45;;;;;;;22.06;42.85;100066.22;5113692;28;20192;-68
2023/04/22 11:16:07;;;;;;;8.67;3.27;;;;;;;21.79;42.62;100076.16;5113808;28;20201;-68
2023/04/22 11:18:33;;;;;;;2.67;2.58;;;;;;;21.69;41.84;100067.47;5114021;28;20197;-68
2023/04/22 11:21:05;;;;;;;6.72;2.40;;;;;;;21.87;42.32;100075.97;5113660;28;20185;-68
2023/04/22 11:23:31;;;;;;;2.85;2.60;;;;;;;21.96;43.51;100068.50;5116231;28;20181;-68
2023/04/22 11:26:00;;;;;;;2.72;2.70;;;;;;;22.03;43.80;100075.66;5117818;28;20253;-68